createdAt,value
2018-12-04T00:02:30.510Z,162.00
2018-12-04T00:05:02.456Z,166.25
2018-12-04T00:07:34.213Z,152.25
2018-12-04T00:10:07.081Z,165.00
2018-12-04T00:12:39.634Z,156.00
2018-12-04T00:15:11.388Z,164.25
2018-12-04T00:17:47.650Z,159.50
2018-12-04T00:20:20.355Z,153.00
2018-12-04T00:22:52.249Z,151.50
2018-12-04T00:25:24.369Z,151.00
2018-12-04T00:27:57.434Z,161.00
2018-12-04T00:30:29.270Z,155.50
2018-12-04T00:33:01.909Z,148.25
2018-12-04T00:35:34.395Z,152.50
2018-12-04T00:38:07.065Z,152.25
2018-12-04T00:40:45.914Z,158.00
2018-12-04T00:43:17.720Z,152.75
2018-12-04T00:45:50.578Z,140.25
2018-12-04T00:48:22.416Z,139.50
2018-12-04T00:50:59.714Z,150.25
2018-12-04T00:53:40.466Z,150.25
2018-12-04T00:56:12.473Z,155.50
2018-12-04T00:58:47.466Z,155.00
2018-12-04T01:01:19.237Z,156.50
2018-12-04T01:03:52.073Z,152.75
2018-12-04T01:06:24.724Z,146.50
2018-12-04T01:08:56.773Z,154.25
2018-12-04T01:11:29.434Z,155.50
2018-12-04T01:14:03.224Z,159.50
2018-12-04T01:16:36.923Z,156.50
2018-12-04T01:19:13.386Z,142.75
2018-12-04T01:21:45.141Z,157.75
2018-12-04T01:24:16.711Z,164.75
2018-12-04T01:26:59.525Z,161.75
2018-12-04T01:29:34.407Z,155.75
2018-12-04T01:32:09.296Z,164.75
2018-12-04T01:34:43.110Z,164.00
2018-12-04T01:37:15.149Z,166.50
2018-12-04T01:39:46.764Z,142.75
2018-12-04T01:42:18.853Z,157.25
2018-12-04T01:44:50.640Z,146.75
2018-12-04T01:47:23.469Z,162.50
2018-12-04T01:49:56.053Z,152.00
2018-12-04T01:52:27.599Z,154.00
2018-12-04T01:54:59.471Z,154.25
2018-12-04T01:57:31.253Z,149.50
2018-12-04T02:00:03.835Z,149.25
2018-12-04T02:02:39.628Z,158.00
2018-12-04T02:05:11.643Z,154.50
2018-12-04T02:07:43.436Z,152.50
2018-12-04T02:10:17.315Z,141.50
2018-12-04T02:12:51.774Z,158.00
2018-12-04T02:15:23.981Z,154.00
2018-12-04T02:17:55.777Z,164.50
2018-12-04T02:20:27.824Z,159.50
2018-12-04T02:22:59.523Z,156.25
2018-12-04T02:25:31.535Z,154.75
2018-12-04T02:28:04.423Z,166.25
2018-12-04T02:30:36.327Z,163.50
2018-12-04T02:33:08.018Z,159.50
2018-12-04T02:35:39.937Z,167.50
2018-12-04T02:38:11.906Z,162.00
2018-12-04T02:40:43.956Z,174.00
2018-12-04T02:43:16.349Z,178.50
2018-12-04T02:45:48.253Z,176.00
2018-12-04T02:48:20.908Z,191.00
2018-12-04T02:50:52.962Z,196.50
2018-12-04T02:53:24.943Z,205.80
2018-12-04T02:55:56.837Z,208.80
2018-12-04T02:58:28.527Z,211.80
2018-12-04T03:01:00.898Z,207.80
2018-12-04T03:03:32.965Z,207.80
2018-12-04T03:06:04.875Z,213.60
2018-12-04T03:08:36.743Z,203.80
2018-12-04T03:11:08.377Z,214.00
2018-12-04T03:13:41.143Z,217.40
2018-12-04T03:16:13.009Z,222.20
2018-12-04T03:18:44.750Z,219.25
2018-12-04T03:21:16.756Z,230.00
2018-12-04T03:23:49.820Z,223.25
2018-12-04T03:26:21.659Z,222.75
2018-12-04T03:28:53.466Z,231.00
2018-12-04T03:31:25.236Z,240.40
2018-12-04T03:33:56.605Z,235.80
2018-12-04T03:36:29.021Z,243.80
2018-12-04T03:39:00.470Z,228.60
2018-12-04T03:41:32.198Z,237.40
2018-12-04T03:44:04.081Z,253.00
2018-12-04T03:46:36.295Z,240.00
2018-12-04T03:49:08.336Z,247.80
2018-12-04T03:51:40.204Z,253.00
2018-12-04T03:54:11.961Z,255.83
2018-12-04T03:56:43.809Z,264.00
2018-12-04T03:59:15.911Z,253.83
2018-12-04T04:01:48.238Z,255.20
2018-12-04T04:04:20.426Z,240.00
2018-12-04T04:06:52.677Z,238.00
2018-12-04T04:09:24.446Z,241.20
2018-12-04T04:11:58.327Z,233.20
2018-12-04T04:14:31.311Z,237.00
2018-12-04T04:17:03.188Z,248.00
2018-12-04T04:19:35.115Z,241.00
2018-12-04T04:22:07.030Z,239.20
2018-12-04T04:24:39.111Z,243.20
2018-12-04T04:27:10.674Z,232.40
2018-12-04T04:29:42.042Z,232.20
2018-12-04T04:32:14.480Z,239.00
2018-12-04T04:34:46.102Z,227.00
2018-12-04T04:37:17.985Z,222.80
2018-12-04T04:39:49.593Z,220.80
2018-12-04T04:42:21.269Z,222.40
2018-12-04T04:44:53.803Z,219.75
2018-12-04T04:47:25.677Z,245.00
2018-12-04T04:50:08.094Z,221.00
2018-12-04T04:52:39.719Z,224.50
2018-12-04T04:55:11.083Z,232.20
2018-12-04T04:57:43.375Z,222.25
2018-12-04T05:00:15.594Z,234.00
2018-12-04T05:02:48.919Z,223.00
2018-12-04T05:05:21.458Z,221.40
2018-12-04T05:17:13.710Z,181.75
2018-12-04T05:19:45.603Z,192.00
2018-12-04T05:22:17.254Z,180.75
2018-12-04T05:24:48.713Z,175.50
2018-12-04T05:27:27.092Z,152.00
2018-12-04T05:30:02.100Z,139.50
2018-12-04T05:32:33.826Z,158.25
2018-12-04T05:35:05.289Z,150.75
2018-12-04T05:37:36.907Z,130.00
2018-12-04T05:40:08.769Z,117.50
2018-12-04T05:42:40.399Z,128.75
2018-12-04T05:45:11.882Z,134.50
2018-12-04T05:47:43.603Z,133.00
2018-12-04T05:50:15.630Z,125.00
2018-12-04T05:55:36.620Z,137.00
2018-12-04T05:58:08.070Z,145.00
2018-12-04T06:00:39.584Z,145.25
2018-12-04T06:03:11.967Z,135.75
2018-12-04T06:05:43.770Z,104.75
2018-12-04T06:08:15.475Z,115.25
2018-12-04T06:10:46.954Z,118.50
2018-12-04T06:13:18.684Z,117.25
2018-12-04T06:15:50.985Z,123.00
2018-12-04T06:18:23.987Z,117.50
2018-12-04T06:20:58.207Z,114.25
2018-12-04T06:23:29.957Z,123.00
2018-12-04T06:26:01.336Z,142.75
2018-12-04T06:28:32.933Z,111.75
2018-12-04T06:31:04.442Z,111.00
2018-12-04T06:33:38.297Z,94.60
2018-12-04T06:36:10.891Z,97.40
2018-12-04T06:38:45.621Z,92.00
2018-12-04T06:41:18.241Z,88.20
2018-12-04T06:43:49.915Z,89.00
2018-12-04T06:46:21.524Z,87.20
2018-12-04T06:48:53.056Z,78.60
2018-12-04T06:51:25.977Z,77.60
2018-12-04T06:53:57.606Z,78.80
2018-12-04T06:56:29.078Z,73.40
2018-12-04T06:59:00.365Z,76.40
2018-12-04T07:01:32.001Z,72.20
2018-12-04T07:04:03.598Z,70.00
2018-12-04T07:06:35.026Z,72.40
2018-12-04T07:09:09.785Z,77.00
2018-12-04T07:11:43.299Z,80.00
2018-12-04T07:14:15.094Z,73.40
2018-12-04T07:16:46.638Z,68.40
2018-12-04T07:19:18.469Z,76.80
2018-12-04T07:21:50.463Z,79.60
2018-12-04T07:24:22.190Z,91.80
2018-12-04T07:26:54.769Z,96.60
2018-12-04T07:29:26.205Z,78.20
2018-12-04T07:31:57.662Z,66.20
2018-12-04T07:34:29.164Z,73.00
2018-12-04T07:37:01.758Z,76.00
2018-12-04T07:39:33.371Z,88.60
2018-12-04T07:42:05.056Z,73.00
2018-12-04T07:44:47.116Z,73.00
2018-12-04T07:47:19.521Z,68.00
2018-12-04T07:49:52.050Z,68.00
2018-12-04T07:52:26.129Z,64.40
2018-12-04T07:54:57.836Z,66.60
2018-12-04T07:57:35.342Z,67.60
2018-12-04T08:00:08.857Z,66.80
2018-12-04T08:02:41.449Z,63.00
2018-12-04T08:05:16.920Z,60.60
2018-12-04T08:07:48.292Z,68.20
2018-12-04T08:10:21.763Z,63.00
2018-12-04T08:12:53.088Z,74.60
2018-12-04T08:15:24.541Z,69.00
2018-12-04T08:17:57.012Z,70.40
2018-12-04T08:20:30.354Z,57.00
2018-12-04T08:23:02.559Z,56.20
2018-12-04T08:25:34.308Z,59.60
2018-12-04T08:28:05.951Z,52.60
2018-12-04T08:30:37.386Z,52.40
2018-12-04T08:33:08.800Z,47.40
2018-12-04T08:35:40.441Z,50.00
2018-12-04T08:38:12.348Z,52.40
2018-12-04T08:40:45.013Z,68.60
2018-12-04T08:43:16.280Z,59.80
2018-12-04T08:45:47.795Z,60.20
2018-12-04T08:48:19.279Z,49.00
2018-12-04T08:50:51.073Z,53.40
2018-12-04T08:53:23.986Z,48.40
2018-12-04T08:55:56.611Z,48.20
2018-12-04T08:58:28.094Z,44.20
2018-12-04T09:00:59.543Z,52.20
2018-12-04T09:03:30.952Z,51.80
2018-12-04T09:06:02.652Z,54.40
2018-12-04T09:08:34.092Z,62.20
2018-12-04T09:11:09.205Z,60.60
2018-12-04T09:13:41.971Z,62.00
2018-12-04T09:16:13.535Z,53.20
2018-12-04T09:18:45.137Z,58.60
2018-12-04T09:21:17.144Z,59.00
2018-12-04T09:23:50.396Z,60.00
2018-12-04T09:26:22.845Z,56.20
2018-12-04T09:28:54.144Z,61.60
2018-12-04T09:31:25.912Z,75.20
2018-12-04T09:33:58.911Z,57.80
2018-12-04T09:36:31.705Z,66.20
2018-12-04T09:39:03.494Z,65.60
2018-12-04T09:41:37.235Z,62.00
2018-12-04T09:44:08.669Z,65.20
2018-12-04T09:46:40.209Z,58.80
2018-12-04T09:49:11.752Z,60.20
2018-12-04T09:51:43.254Z,59.40
2018-12-04T09:54:15.223Z,60.80
2018-12-04T09:56:48.970Z,58.40
2018-12-04T09:59:20.404Z,63.80
2018-12-04T10:01:52.456Z,59.80
2018-12-04T10:04:27.361Z,61.80
2018-12-04T10:06:59.971Z,57.60
2018-12-04T10:09:31.431Z,57.20
2018-12-04T10:12:03.113Z,43.20
2018-12-04T10:14:34.461Z,59.00
2018-12-04T10:17:07.285Z,63.80
2018-12-04T10:19:39.515Z,57.20
2018-12-04T10:22:11.128Z,62.20
2018-12-04T10:24:43.079Z,65.40
2018-12-04T10:27:15.701Z,54.20
2018-12-04T10:29:47.064Z,63.40
2018-12-04T10:32:18.785Z,61.20
2018-12-04T10:34:50.114Z,58.40
2018-12-04T10:37:22.797Z,60.80
2018-12-04T10:39:54.652Z,57.20
2018-12-04T10:42:26.273Z,61.00
2018-12-04T10:44:59.175Z,56.20
2018-12-04T10:47:30.916Z,57.00
2018-12-04T10:50:02.328Z,60.40
2018-12-04T10:52:34.048Z,56.80
2018-12-04T10:55:06.310Z,53.60
2018-12-04T10:57:37.900Z,62.00
2018-12-04T12:35:54.257Z,87.00
2018-12-04T12:38:29.957Z,81.80
2018-12-04T12:41:01.650Z,81.00
2018-12-04T12:43:33.197Z,88.80
2018-12-04T12:46:04.671Z,85.40
2018-12-04T12:48:37.564Z,84.00
2018-12-04T12:51:10.129Z,87.80
2018-12-04T12:53:41.786Z,88.80
2018-12-04T12:56:26.613Z,93.60
2018-12-04T12:59:02.237Z,94.60
2018-12-04T13:01:33.873Z,90.80
2018-12-04T13:10:05.433Z,104.00
2018-12-04T13:12:39.106Z,102.00
2018-12-04T13:15:21.830Z,100.75
2018-12-04T13:18:06.950Z,108.00
2018-12-04T13:20:54.598Z,110.25
2018-12-04T13:23:29.889Z,112.25
2018-12-04T13:26:04.718Z,122.75
2018-12-04T13:28:44.269Z,119.00
2018-12-04T13:31:15.934Z,130.50
2018-12-04T13:33:47.389Z,120.75
2018-12-04T13:36:21.222Z,120.25
2018-12-04T13:38:54.975Z,124.50
2018-12-04T13:41:28.020Z,126.50
2018-12-04T13:44:03.248Z,133.25
2018-12-04T13:46:35.729Z,140.25
2018-12-04T13:49:07.341Z,143.75
2018-12-04T13:51:38.796Z,140.25
2018-12-04T13:54:13.877Z,135.75
2018-12-04T13:56:45.343Z,131.00
2018-12-04T13:59:17.800Z,139.00
2018-12-04T14:01:49.467Z,134.75
2018-12-04T14:04:21.304Z,162.00
2018-12-04T14:06:52.798Z,163.75
2018-12-04T14:09:26.549Z,162.25
2018-12-04T14:12:25.038Z,168.80
2018-12-04T14:14:56.777Z,168.25
2018-12-04T14:17:28.334Z,171.00
2018-12-04T14:20:00.125Z,163.50
2018-12-04T14:22:31.702Z,176.50
2018-12-04T14:25:03.368Z,185.50
2018-12-04T14:27:35.819Z,186.50
2018-12-04T14:30:10.254Z,189.75
2018-12-04T14:32:41.657Z,185.25
2018-12-04T14:35:13.464Z,191.60
2018-12-04T14:37:46.133Z,206.60
2018-12-04T14:40:21.891Z,210.20
2018-12-04T14:42:55.653Z,198.80
2018-12-04T14:45:28.203Z,201.20
2018-12-04T14:48:01.609Z,205.20
2018-12-04T14:50:33.281Z,215.20
2018-12-04T14:53:05.768Z,210.80
2018-12-04T14:55:37.455Z,215.00
2018-12-04T14:58:09.865Z,208.40
2018-12-04T15:00:41.716Z,203.00
2018-12-04T15:03:13.173Z,202.60
2018-12-04T15:05:45.796Z,204.20
2018-12-04T15:08:18.212Z,198.80
2018-12-04T15:10:49.605Z,203.20
2018-12-04T15:13:21.507Z,210.00
2018-12-04T15:15:53.124Z,196.60
2018-12-04T15:18:26.569Z,203.60
2018-12-04T15:20:58.255Z,203.00
2018-12-04T15:23:29.783Z,201.40
2018-12-04T15:26:02.744Z,206.60
2018-12-04T15:28:39.033Z,226.20
2018-12-04T15:31:21.227Z,228.40
2018-12-04T15:33:52.784Z,222.60
2018-12-04T15:36:24.483Z,223.40
2018-12-04T15:38:57.345Z,219.00
2018-12-04T15:41:30.048Z,212.20
2018-12-04T15:44:05.615Z,214.60
2018-12-04T15:46:38.197Z,218.00
2018-12-04T15:49:09.929Z,212.00
2018-12-04T15:51:44.653Z,213.20
2018-12-04T15:54:19.467Z,215.00
2018-12-04T15:56:55.814Z,204.40
2018-12-04T15:59:27.842Z,208.00
2018-12-04T16:02:00.457Z,209.75
2018-12-04T16:04:32.888Z,209.75
2018-12-04T16:07:04.519Z,209.40
2018-12-04T16:09:35.912Z,208.80
2018-12-04T16:12:09.412Z,200.50
2018-12-04T16:14:41.655Z,205.75
2018-12-04T16:17:15.335Z,203.80
2018-12-04T16:19:48.462Z,200.75
2018-12-04T16:22:20.992Z,206.80
2018-12-04T16:24:57.172Z,205.00
2018-12-04T16:27:33.625Z,202.50
2018-12-04T16:30:05.826Z,209.75
2018-12-04T16:32:37.511Z,204.40
2018-12-04T16:35:12.598Z,200.50
2018-12-04T16:37:44.272Z,204.40
2018-12-04T16:40:15.940Z,206.50
2018-12-04T16:42:47.476Z,210.75
2018-12-04T16:45:19.557Z,194.00
2018-12-04T16:47:52.164Z,201.75
2018-12-04T16:50:32.433Z,201.25
2018-12-04T16:53:03.965Z,201.25
2018-12-04T16:55:36.505Z,196.75
2018-12-04T16:58:12.784Z,194.25
2018-12-04T17:00:44.318Z,196.25
2018-12-04T17:03:19.829Z,200.00
2018-12-04T17:05:56.154Z,195.00
2018-12-04T17:08:28.633Z,185.75
2018-12-04T17:10:59.963Z,189.75
2018-12-04T17:13:37.578Z,184.75
2018-12-04T17:16:10.648Z,184.50
2018-12-04T17:18:42.192Z,186.75
2018-12-04T17:21:19.304Z,183.00
2018-12-04T17:23:51.011Z,181.75
2018-12-04T17:26:24.722Z,180.75
2018-12-04T17:28:56.254Z,178.50
2018-12-04T17:31:27.666Z,186.00
2018-12-04T17:33:59.251Z,176.25
2018-12-04T17:36:30.877Z,174.75
2018-12-04T17:39:02.424Z,181.00
2018-12-04T17:41:39.943Z,179.00
2018-12-04T17:44:14.659Z,183.50
2018-12-04T17:46:53.924Z,183.25
2018-12-04T17:49:29.324Z,177.25
2018-12-04T17:52:04.785Z,180.00
2018-12-04T17:54:37.542Z,175.25
2018-12-04T17:57:10.672Z,176.75
2018-12-04T17:59:44.895Z,173.50
2018-12-04T18:02:18.701Z,174.75
2018-12-04T18:04:57.505Z,156.25
2018-12-04T18:07:43.081Z,173.00
2018-12-04T18:10:20.642Z,171.50
2018-12-04T18:12:57.011Z,168.50
2018-12-04T18:15:35.343Z,176.00
2018-12-04T18:18:14.002Z,173.25
2018-12-04T18:20:58.518Z,172.50
2018-12-04T18:23:47.560Z,172.00
2018-12-04T18:26:20.626Z,173.00
2018-12-04T18:28:56.754Z,176.00
2018-12-04T18:31:33.798Z,177.00
2018-12-04T18:34:09.465Z,171.00
2018-12-04T18:36:52.348Z,179.25
2018-12-04T18:39:29.135Z,167.75
2018-12-04T18:42:01.637Z,184.00
2018-12-04T18:44:45.064Z,168.75
2018-12-04T18:47:18.718Z,169.50
2018-12-04T18:49:54.105Z,171.75
2018-12-04T18:52:34.639Z,172.75
2018-12-04T18:55:07.794Z,163.50
2018-12-04T18:57:45.996Z,171.25
2018-12-04T19:00:22.578Z,177.25
2018-12-04T19:06:04.824Z,166.75
2018-12-04T19:08:43.089Z,173.50
2018-12-04T19:11:16.732Z,173.50
2018-12-04T19:16:51.736Z,180.75
2018-12-04T19:22:27.673Z,181.25
2018-12-04T19:25:02.763Z,178.00
2018-12-04T19:27:35.210Z,179.75
2018-12-04T19:30:21.080Z,173.50
2018-12-04T19:32:56.383Z,186.25
2018-12-04T19:35:34.965Z,174.00
2018-12-04T19:38:11.245Z,182.00
2018-12-04T19:40:59.965Z,181.75
2018-12-04T19:43:56.254Z,180.75
2018-12-04T19:46:39.508Z,177.50
2018-12-04T19:49:14.664Z,181.50
2018-12-04T19:51:46.384Z,178.00
2018-12-04T19:54:38.557Z,183.50
2018-12-04T19:57:16.156Z,181.50
2018-12-04T19:59:52.944Z,184.00
2018-12-04T20:02:29.704Z,187.00
2018-12-04T20:05:01.290Z,183.00
2018-12-04T20:07:38.458Z,180.50
2018-12-04T20:10:13.313Z,175.00
2018-12-04T20:12:44.986Z,178.50
2018-12-04T20:15:23.579Z,173.50
2018-12-04T20:17:56.016Z,173.00
2018-12-04T20:20:27.465Z,167.75
2018-12-04T20:23:05.962Z,163.00
2018-12-04T20:25:43.541Z,158.25
2018-12-04T20:28:24.318Z,158.50
2018-12-04T20:30:55.825Z,157.25
2018-12-04T20:33:28.488Z,156.75
2018-12-04T20:36:03.753Z,149.75
2018-12-04T20:38:40.295Z,153.50
2018-12-04T20:41:11.871Z,153.50
2018-12-04T20:43:58.490Z,149.25
2018-12-04T20:46:35.280Z,151.50
2018-12-04T20:49:10.149Z,145.25
2018-12-04T20:51:41.798Z,139.75
2018-12-04T20:54:19.237Z,147.75
2018-12-04T20:56:55.004Z,141.25
2018-12-04T20:59:42.752Z,143.00
2018-12-04T21:02:20.729Z,141.50
2018-12-04T21:05:14.458Z,135.75
2018-12-04T21:07:51.950Z,137.50
2018-12-04T21:10:29.830Z,134.50
2018-12-04T21:13:01.156Z,129.75
2018-12-04T21:15:32.874Z,127.25
2018-12-04T21:18:16.135Z,130.50
2018-12-04T21:21:04.449Z,139.75
2018-12-04T21:23:39.336Z,135.25
2018-12-04T21:26:15.937Z,142.75
2018-12-04T21:28:55.570Z,140.25
2018-12-04T21:31:39.932Z,139.00
2018-12-04T21:34:25.715Z,134.50
2018-12-04T21:37:02.077Z,136.00
2018-12-04T21:39:36.217Z,130.00
2018-12-04T21:42:12.920Z,136.25
2018-12-04T21:46:51.344Z,137.25
2018-12-04T21:49:28.539Z,135.75
2018-12-04T21:52:05.877Z,136.50
2018-12-04T21:54:37.515Z,134.25
2018-12-04T21:57:16.187Z,132.25
2018-12-04T21:59:51.982Z,120.00
2018-12-04T22:02:23.521Z,127.00
2018-12-04T22:04:55.297Z,131.75
2018-12-04T22:07:26.940Z,132.50
2018-12-04T22:10:05.808Z,126.50
2018-12-04T22:12:37.044Z,126.75
2018-12-04T22:15:09.537Z,123.00
2018-12-04T22:17:40.934Z,133.25
2018-12-04T22:20:14.088Z,128.75
2018-12-04T22:25:48.323Z,130.00
2018-12-04T22:31:19.979Z,127.75
2018-12-04T22:33:56.513Z,126.25
2018-12-04T22:36:28.119Z,121.00
2018-12-04T22:39:09.437Z,120.00
2018-12-04T22:41:42.377Z,125.25
2018-12-04T22:44:13.735Z,124.75
2018-12-04T22:46:49.023Z,121.75
2018-12-04T22:49:26.369Z,124.75
2018-12-04T22:51:57.959Z,120.50
2018-12-04T22:54:32.681Z,115.75
2018-12-04T22:57:09.117Z,112.50
2018-12-04T23:00:00.913Z,124.00
2018-12-04T23:02:41.908Z,116.00
2018-12-04T23:05:31.493Z,118.00
2018-12-04T23:08:06.497Z,121.25
2018-12-04T23:13:36.994Z,114.50
2018-12-04T23:16:12.365Z,117.75
2018-12-04T23:18:49.062Z,114.50
2018-12-04T23:21:25.224Z,113.75
2018-12-04T23:23:57.080Z,115.25
2018-12-04T23:26:33.206Z,119.00
2018-12-04T23:32:10.545Z,125.50
2018-12-04T23:34:51.644Z,115.00
2018-12-04T23:37:27.197Z,115.75
2018-12-04T23:40:07.519Z,117.25
2018-12-04T23:45:37.734Z,116.75
2018-12-04T23:48:09.698Z,109.00
2018-12-04T23:50:41.563Z,117.50
2018-12-04T23:53:15.722Z,113.50
2018-12-04T23:55:54.454Z,120.75
2018-12-04T23:58:25.928Z,119.50
